sensor_id;sensor_type;location;lat;lon;timestamp;P1;durP1;ratioP1;P2;durP2;ratioP2
15342;SDS011;7771;48.478;8.936;2023-01-15T00:00:38;2.07;;;0.60;;
15342;SDS011;7771;48.478;8.936;2023-01-15T00:03:05;1.33;;;0.90;;
15342;SDS011;7771;48.478;8.936;2023-01-15T00:05:35;1.77;;;0.70;;
15342;SDS011;7771;48.478;8.936;2023-01-15T00:08:01;0.93;;;0.80;;
15342;SDS011;7771;48.478;8.936;2023-01-15T00:10:28;0.80;;;0.60;;
15342;SDS011;7771;48.478;8.936;2023-01-15T00:12:54;0.93;;;0.67;;
15342;SDS011;7771;48.478;8.936;2023-01-15T00:15:21;1.20;;;0.70;;
15342;SDS011;7771;48.478;8.936;2023-01-15T00:17:47;0.83;;;0.70;;
15342;SDS011;7771;48.478;8.936;2023-01-15T00:20:14;10.30;;;4.77;;
15342;SDS011;7771;48.478;8.936;2023-01-15T00:22:41;0.70;;;0.60;;
15342;SDS011;7771;48.478;8.936;2023-01-15T00:25:08;1.17;;;0.53;;
15342;SDS011;7771;48.478;8.936;2023-01-15T00:27:40;0.70;;;0.60;;
15342;SDS011;7771;48.478;8.936;2023-01-15T00:30:08;0.63;;;0.63;;
15342;SDS011;7771;48.478;8.936;2023-01-15T00:32:34;0.40;;;0.40;;
15342;SDS011;7771;48.478;8.936;2023-01-15T00:35:00;1.40;;;0.80;;
15342;SDS011;7771;48.478;8.936;2023-01-15T00:37:27;0.50;;;0.50;;
15342;SDS011;7771;48.478;8.936;2023-01-15T00:39:54;1.20;;;0.60;;
15342;SDS011;7771;48.478;8.936;2023-01-15T00:42:21;0.63;;;0.60;;
15342;SDS011;7771;48.478;8.936;2023-01-15T00:44:48;0.83;;;0.57;;
15342;SDS011;7771;48.478;8.936;2023-01-15T00:47:14;0.77;;;0.70;;
15342;SDS011;7771;48.478;8.936;2023-01-15T00:49:41;1.73;;;0.73;;
15342;SDS011;7771;48.478;8.936;2023-01-15T00:52:08;0.73;;;0.67;;
15342;SDS011;7771;48.478;8.936;2023-01-15T00:54:34;0.60;;;0.50;;
15342;SDS011;7771;48.478;8.936;2023-01-15T00:57:01;1.03;;;0.57;;
15342;SDS011;7771;48.478;8.936;2023-01-15T00:59:28;1.13;;;0.77;;
15342;SDS011;7771;48.478;8.936;2023-01-15T01:01:55;1.03;;;0.70;;
15342;SDS011;7771;48.478;8.936;2023-01-15T01:04:21;1.50;;;0.50;;
15342;SDS011;7771;48.478;8.936;2023-01-15T01:06:48;0.60;;;0.60;;
15342;SDS011;7771;48.478;8.936;2023-01-15T01:09:15;0.63;;;0.50;;
15342;SDS011;7771;48.478;8.936;2023-01-15T01:11:41;0.60;;;0.60;;
15342;SDS011;7771;48.478;8.936;2023-01-15T01:14:08;0.70;;;0.50;;
15342;SDS011;7771;48.478;8.936;2023-01-15T01:16:36;0.80;;;0.60;;
15342;SDS011;7771;48.478;8.936;2023-01-15T01:19:03;0.83;;;0.63;;
15342;SDS011;7771;48.478;8.936;2023-01-15T01:21:29;1.07;;;0.70;;
15342;SDS011;7771;48.478;8.936;2023-01-15T01:23:57;0.50;;;0.40;;
15342;SDS011;7771;48.478;8.936;2023-01-15T01:26:24;0.53;;;0.50;;
15342;SDS011;7771;48.478;8.936;2023-01-15T01:28:51;0.60;;;0.40;;
15342;SDS011;7771;48.478;8.936;2023-01-15T01:31:18;0.50;;;0.50;;
15342;SDS011;7771;48.478;8.936;2023-01-15T01:33:47;0.97;;;0.50;;
15342;SDS011;7771;48.478;8.936;2023-01-15T01:36:14;0.40;;;0.40;;
15342;SDS011;7771;48.478;8.936;2023-01-15T01:38:41;0.57;;;0.50;;
15342;SDS011;7771;48.478;8.936;2023-01-15T01:41:08;1.50;;;0.53;;
15342;SDS011;7771;48.478;8.936;2023-01-15T01:43:50;0.53;;;0.53;;
15342;SDS011;7771;48.478;8.936;2023-01-15T01:46:01;0.30;;;0.30;;
15342;SDS011;7771;48.478;8.936;2023-01-15T01:48:29;0.47;;;0.40;;
15342;SDS011;7771;48.478;8.936;2023-01-15T01:50:56;0.60;;;0.50;;
15342;SDS011;7771;48.478;8.936;2023-01-15T01:53:24;0.83;;;0.67;;
15342;SDS011;7771;48.478;8.936;2023-01-15T01:55:50;0.43;;;0.43;;
15342;SDS011;7771;48.478;8.936;2023-01-15T01:58:17;0.40;;;0.40;;
15342;SDS011;7771;48.478;8.936;2023-01-15T02:00:45;0.93;;;0.67;;
15342;SDS011;7771;48.478;8.936;2023-01-15T02:03:11;0.60;;;0.50;;
15342;SDS011;7771;48.478;8.936;2023-01-15T02:05:39;0.43;;;0.30;;
15342;SDS011;7771;48.478;8.936;2023-01-15T02:08:06;0.40;;;0.40;;
15342;SDS011;7771;48.478;8.936;2023-01-15T02:10:33;0.47;;;0.43;;
15342;SDS011;7771;48.478;8.936;2023-01-15T02:13:02;0.30;;;0.30;;
15342;SDS011;7771;48.478;8.936;2023-01-15T02:15:31;0.57;;;0.50;;
15342;SDS011;7771;48.478;8.936;2023-01-15T02:18:00;0.40;;;0.40;;
15342;SDS011;7771;48.478;8.936;2023-01-15T02:20:28;0.20;;;0.20;;
15342;SDS011;7771;48.478;8.936;2023-01-15T02:23:17;0.40;;;0.40;;
15342;SDS011;7771;48.478;8.936;2023-01-15T02:25:50;0.57;;;0.57;;
15342;SDS011;7771;48.478;8.936;2023-01-15T02:28:23;0.40;;;0.40;;
15342;SDS011;7771;48.478;8.936;2023-01-15T02:30:52;0.40;;;0.40;;
15342;SDS011;7771;48.478;8.936;2023-01-15T02:33:17;0.40;;;0.40;;
15342;SDS011;7771;48.478;8.936;2023-01-15T02:35:45;1.53;;;0.80;;
15342;SDS011;7771;48.478;8.936;2023-01-15T02:38:12;0.30;;;0.30;;
15342;SDS011;7771;48.478;8.936;2023-01-15T02:40:37;0.30;;;0.30;;
15342;SDS011;7771;48.478;8.936;2023-01-15T02:43:05;0.90;;;0.50;;
15342;SDS011;7771;48.478;8.936;2023-01-15T02:45:32;2.83;;;0.50;;
15342;SDS011;7771;48.478;8.936;2023-01-15T02:47:59;0.40;;;0.40;;
15342;SDS011;7771;48.478;8.936;2023-01-15T02:50:26;0.37;;;0.30;;
15342;SDS011;7771;48.478;8.936;2023-01-15T02:52:54;0.40;;;0.40;;
15342;SDS011;7771;48.478;8.936;2023-01-15T02:55:19;0.57;;;0.40;;
15342;SDS011;7771;48.478;8.936;2023-01-15T02:57:46;0.30;;;0.30;;
15342;SDS011;7771;48.478;8.936;2023-01-15T03:00:13;0.80;;;0.50;;
15342;SDS011;7771;48.478;8.936;2023-01-15T03:02:45;0.23;;;0.23;;
15342;SDS011;7771;48.478;8.936;2023-01-15T03:05:15;0.70;;;0.20;;
15342;SDS011;7771;48.478;8.936;2023-01-15T03:07:49;5.53;;;2.63;;
15342;SDS011;7771;48.478;8.936;2023-01-15T03:10:15;1.83;;;0.80;;
15342;SDS011;7771;48.478;8.936;2023-01-15T03:12:52;0.57;;;0.50;;
15342;SDS011;7771;48.478;8.936;2023-01-15T03:15:26;0.77;;;0.30;;
15342;SDS011;7771;48.478;8.936;2023-01-15T03:17:58;0.47;;;0.30;;
15342;SDS011;7771;48.478;8.936;2023-01-15T03:20:25;0.57;;;0.30;;
15342;SDS011;7771;48.478;8.936;2023-01-15T03:22:53;0.50;;;0.30;;
15342;SDS011;7771;48.478;8.936;2023-01-15T03:25:21;0.47;;;0.40;;
15342;SDS011;7771;48.478;8.936;2023-01-15T03:27:47;0.37;;;0.30;;
15342;SDS011;7771;48.478;8.936;2023-01-15T03:30:16;0.50;;;0.47;;
15342;SDS011;7771;48.478;8.936;2023-01-15T03:32:42;0.20;;;0.20;;
15342;SDS011;7771;48.478;8.936;2023-01-15T03:37:48;0.27;;;0.27;;
15342;SDS011;7771;48.478;8.936;2023-01-15T03:40:15;0.30;;;0.30;;
15342;SDS011;7771;48.478;8.936;2023-01-15T03:42:49;1.00;;;0.57;;
15342;SDS011;7771;48.478;8.936;2023-01-15T03:45:19;0.60;;;0.50;;
15342;SDS011;7771;48.478;8.936;2023-01-15T03:47:48;0.50;;;0.50;;
15342;SDS011;7771;48.478;8.936;2023-01-15T03:50:21;0.40;;;0.40;;
15342;SDS011;7771;48.478;8.936;2023-01-15T03:53:05;0.23;;;0.23;;
15342;SDS011;7771;48.478;8.936;2023-01-15T03:55:38;0.30;;;0.30;;
15342;SDS011;7771;48.478;8.936;2023-01-15T03:58:06;0.70;;;0.30;;
15342;SDS011;7771;48.478;8.936;2023-01-15T04:00:33;1.27;;;0.60;;
15342;SDS011;7771;48.478;8.936;2023-01-15T04:03:00;3.43;;;0.40;;
15342;SDS011;7771;48.478;8.936;2023-01-15T04:05:27;0.27;;;0.27;;
15342;SDS011;7771;48.478;8.936;2023-01-15T04:07:54;2.00;;;1.00;;
15342;SDS011;7771;48.478;8.936;2023-01-15T04:10:22;0.80;;;0.60;;
15342;SDS011;7771;48.478;8.936;2023-01-15T04:12:48;0.50;;;0.50;;
15342;SDS011;7771;48.478;8.936;2023-01-15T04:15:15;0.30;;;0.30;;
15342;SDS011;7771;48.478;8.936;2023-01-15T04:17:42;0.40;;;0.40;;
15342;SDS011;7771;48.478;8.936;2023-01-15T04:20:09;0.20;;;0.20;;
15342;SDS011;7771;48.478;8.936;2023-01-15T04:22:36;0.40;;;0.40;;
15342;SDS011;7771;48.478;8.936;2023-01-15T04:25:03;0.67;;;0.50;;
15342;SDS011;7771;48.478;8.936;2023-01-15T04:27:30;0.33;;;0.33;;
15342;SDS011;7771;48.478;8.936;2023-01-15T04:29:57;0.47;;;0.20;;
15342;SDS011;7771;48.478;8.936;2023-01-15T04:32:24;0.57;;;0.30;;
15342;SDS011;7771;48.478;8.936;2023-01-15T04:34:52;0.70;;;0.60;;
15342;SDS011;7771;48.478;8.936;2023-01-15T04:37:18;0.37;;;0.37;;
15342;SDS011;7771;48.478;8.936;2023-01-15T04:39:45;1.47;;;0.30;;
15342;SDS011;7771;48.478;8.936;2023-01-15T04:42:12;0.27;;;0.27;;
15342;SDS011;7771;48.478;8.936;2023-01-15T04:44:45;0.20;;;0.20;;
15342;SDS011;7771;48.478;8.936;2023-01-15T04:47:12;0.90;;;0.43;;
15342;SDS011;7771;48.478;8.936;2023-01-15T04:49:39;0.50;;;0.50;;
15342;SDS011;7771;48.478;8.936;2023-01-15T04:52:05;1.10;;;0.80;;
15342;SDS011;7771;48.478;8.936;2023-01-15T04:54:32;0.50;;;0.40;;
15342;SDS011;7771;48.478;8.936;2023-01-15T04:56:59;0.40;;;0.40;;
15342;SDS011;7771;48.478;8.936;2023-01-15T04:59:26;0.93;;;0.40;;
15342;SDS011;7771;48.478;8.936;2023-01-15T05:01:53;0.63;;;0.60;;
15342;SDS011;7771;48.478;8.936;2023-01-15T05:04:19;1.43;;;0.50;;
15342;SDS011;7771;48.478;8.936;2023-01-15T05:06:46;0.50;;;0.50;;
15342;SDS011;7771;48.478;8.936;2023-01-15T05:09:12;0.77;;;0.40;;
15342;SDS011;7771;48.478;8.936;2023-01-15T05:11:39;0.40;;;0.40;;
15342;SDS011;7771;48.478;8.936;2023-01-15T05:14:06;1.17;;;0.53;;
15342;SDS011;7771;48.478;8.936;2023-01-15T05:16:32;0.40;;;0.40;;
15342;SDS011;7771;48.478;8.936;2023-01-15T05:19:00;0.30;;;0.30;;
15342;SDS011;7771;48.478;8.936;2023-01-15T05:21:26;0.40;;;0.40;;
15342;SDS011;7771;48.478;8.936;2023-01-15T05:23:53;0.50;;;0.37;;
15342;SDS011;7771;48.478;8.936;2023-01-15T05:26:19;0.40;;;0.40;;
15342;SDS011;7771;48.478;8.936;2023-01-15T05:28:46;0.87;;;0.70;;
15342;SDS011;7771;48.478;8.936;2023-01-15T05:31:14;0.30;;;0.30;;
15342;SDS011;7771;48.478;8.936;2023-01-15T05:33:40;0.40;;;0.40;;
15342;SDS011;7771;48.478;8.936;2023-01-15T05:36:08;0.40;;;0.40;;
15342;SDS011;7771;48.478;8.936;2023-01-15T05:38:36;1.73;;;0.40;;
15342;SDS011;7771;48.478;8.936;2023-01-15T05:41:04;0.50;;;0.30;;
15342;SDS011;7771;48.478;8.936;2023-01-15T05:43:30;0.50;;;0.50;;
15342;SDS011;7771;48.478;8.936;2023-01-15T05:46:00;0.20;;;0.20;;
15342;SDS011;7771;48.478;8.936;2023-01-15T05:48:23;0.30;;;0.30;;
15342;SDS011;7771;48.478;8.936;2023-01-15T05:50:50;0.83;;;0.40;;
15342;SDS011;7771;48.478;8.936;2023-01-15T05:53:16;1.03;;;0.70;;
15342;SDS011;7771;48.478;8.936;2023-01-15T05:55:45;0.33;;;0.33;;
15342;SDS011;7771;48.478;8.936;2023-01-15T05:58:12;0.40;;;0.40;;
15342;SDS011;7771;48.478;8.936;2023-01-15T06:00:39;0.50;;;0.30;;
15342;SDS011;7771;48.478;8.936;2023-01-15T06:03:07;1.90;;;0.57;;
15342;SDS011;7771;48.478;8.936;2023-01-15T06:05:34;0.40;;;0.40;;
15342;SDS011;7771;48.478;8.936;2023-01-15T06:08:01;0.47;;;0.47;;
15342;SDS011;7771;48.478;8.936;2023-01-15T06:10:29;0.40;;;0.40;;
15342;SDS011;7771;48.478;8.936;2023-01-15T06:12:56;0.70;;;0.40;;
15342;SDS011;7771;48.478;8.936;2023-01-15T06:15:23;0.33;;;0.30;;
15342;SDS011;7771;48.478;8.936;2023-01-15T06:17:51;0.67;;;0.30;;
15342;SDS011;7771;48.478;8.936;2023-01-15T06:20:18;2.00;;;0.30;;
15342;SDS011;7771;48.478;8.936;2023-01-15T06:22:47;0.13;;;0.13;;
15342;SDS011;7771;48.478;8.936;2023-01-15T06:25:11;0.10;;;0.10;;
15342;SDS011;7771;48.478;8.936;2023-01-15T06:27:38;0.20;;;0.20;;
15342;SDS011;7771;48.478;8.936;2023-01-15T06:30:05;0.20;;;0.20;;
15342;SDS011;7771;48.478;8.936;2023-01-15T06:32:32;0.20;;;0.20;;
15342;SDS011;7771;48.478;8.936;2023-01-15T06:35:00;0.30;;;0.30;;
15342;SDS011;7771;48.478;8.936;2023-01-15T06:37:27;0.40;;;0.40;;
15342;SDS011;7771;48.478;8.936;2023-01-15T06:39:55;0.33;;;0.33;;
15342;SDS011;7771;48.478;8.936;2023-01-15T06:42:22;0.20;;;0.20;;
15342;SDS011;7771;48.478;8.936;2023-01-15T06:44:54;0.33;;;0.33;;
15342;SDS011;7771;48.478;8.936;2023-01-15T06:47:27;0.57;;;0.57;;
15342;SDS011;7771;48.478;8.936;2023-01-15T06:49:54;0.97;;;0.40;;
15342;SDS011;7771;48.478;8.936;2023-01-15T06:52:21;0.80;;;0.50;;
15342;SDS011;7771;48.478;8.936;2023-01-15T06:54:47;0.30;;;0.30;;
15342;SDS011;7771;48.478;8.936;2023-01-15T06:57:13;0.37;;;0.37;;
15342;SDS011;7771;48.478;8.936;2023-01-15T06:59:41;0.40;;;0.40;;
15342;SDS011;7771;48.478;8.936;2023-01-15T07:02:10;0.53;;;0.40;;
15342;SDS011;7771;48.478;8.936;2023-01-15T07:04:36;0.20;;;0.20;;
15342;SDS011;7771;48.478;8.936;2023-01-15T07:07:04;0.30;;;0.30;;
15342;SDS011;7771;48.478;8.936;2023-01-15T07:09:31;0.67;;;0.60;;
15342;SDS011;7771;48.478;8.936;2023-01-15T07:11:57;0.50;;;0.50;;
15342;SDS011;7771;48.478;8.936;2023-01-15T07:14:25;0.27;;;0.27;;
15342;SDS011;7771;48.478;8.936;2023-01-15T07:16:52;0.30;;;0.30;;
15342;SDS011;7771;48.478;8.936;2023-01-15T07:19:19;0.63;;;0.40;;
15342;SDS011;7771;48.478;8.936;2023-01-15T07:21:46;0.50;;;0.50;;
15342;SDS011;7771;48.478;8.936;2023-01-15T07:24:12;0.50;;;0.50;;
15342;SDS011;7771;48.478;8.936;2023-01-15T07:26:40;0.33;;;0.33;;
15342;SDS011;7771;48.478;8.936;2023-01-15T07:29:06;0.50;;;0.50;;
15342;SDS011;7771;48.478;8.936;2023-01-15T07:31:32;1.40;;;1.30;;
15342;SDS011;7771;48.478;8.936;2023-01-15T07:34:00;1.20;;;1.10;;
15342;SDS011;7771;48.478;8.936;2023-01-15T07:36:27;1.27;;;0.90;;
15342;SDS011;7771;48.478;8.936;2023-01-15T07:38:54;1.20;;;1.10;;
15342;SDS011;7771;48.478;8.936;2023-01-15T07:41:21;1.97;;;1.60;;
15342;SDS011;7771;48.478;8.936;2023-01-15T07:43:54;1.97;;;1.50;;
15342;SDS011;7771;48.478;8.936;2023-01-15T07:46:27;1.27;;;1.07;;
15342;SDS011;7771;48.478;8.936;2023-01-15T07:49:00;1.37;;;1.00;;
15342;SDS011;7771;48.478;8.936;2023-01-15T07:51:32;0.60;;;0.60;;
15342;SDS011;7771;48.478;8.936;2023-01-15T07:53:59;0.63;;;0.57;;
15342;SDS011;7771;48.478;8.936;2023-01-15T07:56:26;0.57;;;0.57;;
15342;SDS011;7771;48.478;8.936;2023-01-15T07:58:52;0.40;;;0.40;;
15342;SDS011;7771;48.478;8.936;2023-01-15T08:01:19;0.40;;;0.40;;
15342;SDS011;7771;48.478;8.936;2023-01-15T08:03:46;0.70;;;0.70;;
15342;SDS011;7771;48.478;8.936;2023-01-15T08:06:12;1.10;;;0.73;;
15342;SDS011;7771;48.478;8.936;2023-01-15T08:08:39;0.90;;;0.60;;
15342;SDS011;7771;48.478;8.936;2023-01-15T08:11:06;0.50;;;0.50;;
15342;SDS011;7771;48.478;8.936;2023-01-15T08:13:39;1.80;;;0.80;;
15342;SDS011;7771;48.478;8.936;2023-01-15T08:16:12;1.60;;;1.10;;
15342;SDS011;7771;48.478;8.936;2023-01-15T08:18:39;0.60;;;0.60;;
15342;SDS011;7771;48.478;8.936;2023-01-15T08:21:06;0.73;;;0.73;;
15342;SDS011;7771;48.478;8.936;2023-01-15T08:23:32;2.10;;;1.23;;
15342;SDS011;7771;48.478;8.936;2023-01-15T08:25:59;1.73;;;0.90;;
15342;SDS011;7771;48.478;8.936;2023-01-15T08:28:26;1.63;;;0.90;;
15342;SDS011;7771;48.478;8.936;2023-01-15T08:30:52;0.57;;;0.57;;
15342;SDS011;7771;48.478;8.936;2023-01-15T08:33:19;1.50;;;0.73;;
15342;SDS011;7771;48.478;8.936;2023-01-15T08:38:18;0.70;;;0.50;;
15342;SDS011;7771;48.478;8.936;2023-01-15T08:40:45;0.40;;;0.40;;
15342;SDS011;7771;48.478;8.936;2023-01-15T08:43:17;0.60;;;0.60;;
15342;SDS011;7771;48.478;8.936;2023-01-15T08:45:43;1.40;;;0.60;;
15342;SDS011;7771;48.478;8.936;2023-01-15T08:48:10;1.57;;;0.83;;
15342;SDS011;7771;48.478;8.936;2023-01-15T08:50:37;0.60;;;0.60;;
15342;SDS011;7771;48.478;8.936;2023-01-15T08:53:03;0.50;;;0.50;;
15342;SDS011;7771;48.478;8.936;2023-01-15T08:55:30;0.90;;;0.80;;
15342;SDS011;7771;48.478;8.936;2023-01-15T08:57:57;0.87;;;0.73;;
15342;SDS011;7771;48.478;8.936;2023-01-15T09:00:24;0.60;;;0.60;;
15342;SDS011;7771;48.478;8.936;2023-01-15T09:02:52;4.00;;;0.90;;
15342;SDS011;7771;48.478;8.936;2023-01-15T09:05:19;0.80;;;0.70;;
15342;SDS011;7771;48.478;8.936;2023-01-15T09:07:47;1.50;;;0.80;;
15342;SDS011;7771;48.478;8.936;2023-01-15T09:10:14;1.37;;;1.07;;
15342;SDS011;7771;48.478;8.936;2023-01-15T09:12:41;1.00;;;0.80;;
15342;SDS011;7771;48.478;8.936;2023-01-15T09:15:08;1.90;;;0.60;;
15342;SDS011;7771;48.478;8.936;2023-01-15T09:17:36;0.63;;;0.60;;
15342;SDS011;7771;48.478;8.936;2023-01-15T09:20:03;1.87;;;1.00;;
15342;SDS011;7771;48.478;8.936;2023-01-15T09:22:32;1.50;;;1.10;;
15342;SDS011;7771;48.478;8.936;2023-01-15T09:24:59;1.20;;;0.80;;
15342;SDS011;7771;48.478;8.936;2023-01-15T09:27:27;1.00;;;0.90;;
15342;SDS011;7771;48.478;8.936;2023-01-15T09:29:54;0.80;;;0.80;;
15342;SDS011;7771;48.478;8.936;2023-01-15T09:32:21;0.87;;;0.70;;
15342;SDS011;7771;48.478;8.936;2023-01-15T09:34:47;0.70;;;0.70;;
15342;SDS011;7771;48.478;8.936;2023-01-15T09:37:14;0.93;;;0.80;;
15342;SDS011;7771;48.478;8.936;2023-01-15T09:39:42;1.33;;;0.70;;
15342;SDS011;7771;48.478;8.936;2023-01-15T09:42:15;1.57;;;0.70;;
15342;SDS011;7771;48.478;8.936;2023-01-15T09:45:13;0.87;;;0.87;;
15342;SDS011;7771;48.478;8.936;2023-01-15T09:47:36;0.60;;;0.60;;
15342;SDS011;7771;48.478;8.936;2023-01-15T09:51:13;1.03;;;0.47;;
15342;SDS011;7771;48.478;8.936;2023-01-15T09:55:32;0.43;;;0.43;;
15342;SDS011;7771;48.478;8.936;2023-01-15T09:57:59;1.00;;;0.80;;
15342;SDS011;7771;48.478;8.936;2023-01-15T10:00:25;0.40;;;0.40;;
15342;SDS011;7771;48.478;8.936;2023-01-15T10:02:54;1.60;;;0.80;;
15342;SDS011;7771;48.478;8.936;2023-01-15T10:05:25;1.07;;;0.60;;
15342;SDS011;7771;48.478;8.936;2023-01-15T10:07:54;0.87;;;0.70;;
15342;SDS011;7771;48.478;8.936;2023-01-15T10:10:36;0.80;;;0.80;;
15342;SDS011;7771;48.478;8.936;2023-01-15T10:13:05;1.97;;;0.73;;
15342;SDS011;7771;48.478;8.936;2023-01-15T10:15:39;1.27;;;0.63;;
15342;SDS011;7771;48.478;8.936;2023-01-15T10:18:11;0.60;;;0.60;;
15342;SDS011;7771;48.478;8.936;2023-01-15T10:21:45;0.80;;;0.77;;
15342;SDS011;7771;48.478;8.936;2023-01-15T10:23:32;1.00;;;0.70;;
15342;SDS011;7771;48.478;8.936;2023-01-15T10:26:07;0.87;;;0.80;;
15342;SDS011;7771;48.478;8.936;2023-01-15T10:28:31;0.83;;;0.70;;
15342;SDS011;7771;48.478;8.936;2023-01-15T10:31:04;1.53;;;1.00;;
15342;SDS011;7771;48.478;8.936;2023-01-15T10:33:36;1.70;;;1.20;;
15342;SDS011;7771;48.478;8.936;2023-01-15T10:36:19;0.63;;;0.60;;
15342;SDS011;7771;48.478;8.936;2023-01-15T10:38:50;1.50;;;1.10;;
15342;SDS011;7771;48.478;8.936;2023-01-15T10:41:21;69.03;;;35.60;;
15342;SDS011;7771;48.478;8.936;2023-01-15T10:43:47;41.50;;;17.83;;
15342;SDS011;7771;48.478;8.936;2023-01-15T10:46:16;9.60;;;4.30;;
15342;SDS011;7771;48.478;8.936;2023-01-15T10:48:44;1.87;;;1.20;;
15342;SDS011;7771;48.478;8.936;2023-01-15T10:51:20;1.77;;;0.83;;
15342;SDS011;7771;48.478;8.936;2023-01-15T10:53:52;1.67;;;0.87;;
15342;SDS011;7771;48.478;8.936;2023-01-15T10:56:21;3.13;;;1.70;;
15342;SDS011;7771;48.478;8.936;2023-01-15T10:58:51;2.13;;;1.40;;
15342;SDS011;7771;48.478;8.936;2023-01-15T11:01:17;2.20;;;1.80;;
15342;SDS011;7771;48.478;8.936;2023-01-15T11:03:44;4.20;;;2.20;;
15342;SDS011;7771;48.478;8.936;2023-01-15T11:06:12;2.87;;;1.83;;
15342;SDS011;7771;48.478;8.936;2023-01-15T11:08:39;13.23;;;9.33;;
15342;SDS011;7771;48.478;8.936;2023-01-15T11:14:00;2.40;;;1.87;;
15342;SDS011;7771;48.478;8.936;2023-01-15T11:16:43;1.23;;;0.97;;
15342;SDS011;7771;48.478;8.936;2023-01-15T11:19:23;1.90;;;1.07;;
15342;SDS011;7771;48.478;8.936;2023-01-15T11:21:53;0.80;;;0.80;;
15342;SDS011;7771;48.478;8.936;2023-01-15T11:24:19;1.47;;;1.30;;
15342;SDS011;7771;48.478;8.936;2023-01-15T11:26:48;3.27;;;2.50;;
15342;SDS011;7771;48.478;8.936;2023-01-15T11:29:19;3.87;;;2.60;;
15342;SDS011;7771;48.478;8.936;2023-01-15T11:31:46;3.30;;;2.03;;
15342;SDS011;7771;48.478;8.936;2023-01-15T11:34:17;2.03;;;0.80;;
15342;SDS011;7771;48.478;8.936;2023-01-15T11:36:41;0.73;;;0.73;;
15342;SDS011;7771;48.478;8.936;2023-01-15T11:41:47;1.27;;;1.00;;
15342;SDS011;7771;48.478;8.936;2023-01-15T11:44:21;1.10;;;1.00;;
15342;SDS011;7771;48.478;8.936;2023-01-15T11:46:54;2.53;;;1.30;;
15342;SDS011;7771;48.478;8.936;2023-01-15T11:49:25;4.57;;;3.30;;
15342;SDS011;7771;48.478;8.936;2023-01-15T11:51:59;1.67;;;1.20;;
15342;SDS011;7771;48.478;8.936;2023-01-15T11:54:25;0.77;;;0.67;;
15342;SDS011;7771;48.478;8.936;2023-01-15T11:56:52;2.50;;;1.10;;
15342;SDS011;7771;48.478;8.936;2023-01-15T11:59:19;0.77;;;0.77;;
15342;SDS011;7771;48.478;8.936;2023-01-15T12:01:49;0.70;;;0.70;;
15342;SDS011;7771;48.478;8.936;2023-01-15T12:06:47;3.80;;;3.23;;
15342;SDS011;7771;48.478;8.936;2023-01-15T12:11:57;1.67;;;0.90;;
15342;SDS011;7771;48.478;8.936;2023-01-15T12:17:24;0.70;;;0.70;;
15342;SDS011;7771;48.478;8.936;2023-01-15T12:19:52;2.20;;;1.03;;
15342;SDS011;7771;48.478;8.936;2023-01-15T12:22:19;2.20;;;1.03;;
15342;SDS011;7771;48.478;8.936;2023-01-15T12:24:49;1.47;;;0.93;;
15342;SDS011;7771;48.478;8.936;2023-01-15T12:27:36;2.00;;;1.10;;
15342;SDS011;7771;48.478;8.936;2023-01-15T12:30:02;0.90;;;0.90;;
15342;SDS011;7771;48.478;8.936;2023-01-15T12:32:30;8.07;;;4.30;;
15342;SDS011;7771;48.478;8.936;2023-01-15T12:35:04;1.87;;;1.47;;
15342;SDS011;7771;48.478;8.936;2023-01-15T12:37:34;2.60;;;1.47;;
15342;SDS011;7771;48.478;8.936;2023-01-15T12:40:05;2.97;;;1.93;;
15342;SDS011;7771;48.478;8.936;2023-01-15T12:42:44;3.50;;;2.77;;
15342;SDS011;7771;48.478;8.936;2023-01-15T12:45:19;2.53;;;1.93;;
15342;SDS011;7771;48.478;8.936;2023-01-15T12:47:48;3.57;;;1.70;;
15342;SDS011;7771;48.478;8.936;2023-01-15T12:55:52;1.97;;;1.33;;
15342;SDS011;7771;48.478;8.936;2023-01-15T12:58:27;1.03;;;0.93;;
15342;SDS011;7771;48.478;8.936;2023-01-15T13:00:56;1.10;;;1.00;;
15342;SDS011;7771;48.478;8.936;2023-01-15T13:03:22;1.50;;;1.20;;
15342;SDS011;7771;48.478;8.936;2023-01-15T13:05:57;1.87;;;1.20;;
15342;SDS011;7771;48.478;8.936;2023-01-15T13:08:27;1.83;;;1.30;;
15342;SDS011;7771;48.478;8.936;2023-01-15T13:10:58;1.53;;;1.30;;
15342;SDS011;7771;48.478;8.936;2023-01-15T13:13:31;2.40;;;1.20;;
15342;SDS011;7771;48.478;8.936;2023-01-15T13:16:00;2.10;;;1.50;;
15342;SDS011;7771;48.478;8.936;2023-01-15T13:19:05;1.90;;;1.40;;
15342;SDS011;7771;48.478;8.936;2023-01-15T13:21:17;1.37;;;1.03;;
15342;SDS011;7771;48.478;8.936;2023-01-15T13:23:52;3.03;;;2.10;;
15342;SDS011;7771;48.478;8.936;2023-01-15T13:26:37;3.00;;;1.37;;
15342;SDS011;7771;48.478;8.936;2023-01-15T13:29:18;96.70;;;45.30;;
15342;SDS011;7771;48.478;8.936;2023-01-15T13:31:53;175.60;;;94.57;;
15342;SDS011;7771;48.478;8.936;2023-01-15T13:34:21;89.90;;;68.73;;
15342;SDS011;7771;48.478;8.936;2023-01-15T13:36:48;9.37;;;8.47;;
15342;SDS011;7771;48.478;8.936;2023-01-15T13:39:17;2.80;;;1.73;;
15342;SDS011;7771;48.478;8.936;2023-01-15T13:41:45;2.33;;;1.33;;
15342;SDS011;7771;48.478;8.936;2023-01-15T13:44:18;2.80;;;2.03;;
15342;SDS011;7771;48.478;8.936;2023-01-15T13:46:46;1.30;;;0.90;;
15342;SDS011;7771;48.478;8.936;2023-01-15T13:49:15;3.43;;;1.37;;
15342;SDS011;7771;48.478;8.936;2023-01-15T13:51:39;2.33;;;1.00;;
15342;SDS011;7771;48.478;8.936;2023-01-15T13:54:10;1.93;;;1.40;;
15342;SDS011;7771;48.478;8.936;2023-01-15T13:56:34;1.70;;;1.00;;
15342;SDS011;7771;48.478;8.936;2023-01-15T13:59:02;1.33;;;1.00;;
15342;SDS011;7771;48.478;8.936;2023-01-15T14:01:32;1.53;;;0.90;;
15342;SDS011;7771;48.478;8.936;2023-01-15T14:04:04;2.53;;;1.57;;
15342;SDS011;7771;48.478;8.936;2023-01-15T14:06:37;4.83;;;4.17;;
15342;SDS011;7771;48.478;8.936;2023-01-15T14:09:05;3.63;;;1.80;;
15342;SDS011;7771;48.478;8.936;2023-01-15T14:11:34;2.00;;;1.10;;
15342;SDS011;7771;48.478;8.936;2023-01-15T14:14:10;2.37;;;1.63;;
15342;SDS011;7771;48.478;8.936;2023-01-15T14:16:45;1.57;;;0.90;;
15342;SDS011;7771;48.478;8.936;2023-01-15T14:22:00;2.83;;;1.10;;
15342;SDS011;7771;48.478;8.936;2023-01-15T14:24:38;1.73;;;1.00;;
15342;SDS011;7771;48.478;8.936;2023-01-15T14:27:03;1.67;;;0.80;;
15342;SDS011;7771;48.478;8.936;2023-01-15T14:29:39;1.53;;;0.70;;
15342;SDS011;7771;48.478;8.936;2023-01-15T14:32:02;1.87;;;1.17;;
15342;SDS011;7771;48.478;8.936;2023-01-15T14:34:29;3.83;;;2.03;;
15342;SDS011;7771;48.478;8.936;2023-01-15T14:39:50;8.03;;;7.20;;
15342;SDS011;7771;48.478;8.936;2023-01-15T14:42:36;10.60;;;9.67;;
15342;SDS011;7771;48.478;8.936;2023-01-15T14:45:16;3.00;;;2.70;;
15342;SDS011;7771;48.478;8.936;2023-01-15T14:47:48;1.23;;;1.13;;
15342;SDS011;7771;48.478;8.936;2023-01-15T14:55:52;1.33;;;1.10;;
15342;SDS011;7771;48.478;8.936;2023-01-15T15:00:55;1.97;;;1.40;;
15342;SDS011;7771;48.478;8.936;2023-01-15T15:03:24;27.77;;;16.87;;
15342;SDS011;7771;48.478;8.936;2023-01-15T15:05:48;5.30;;;4.80;;
15342;SDS011;7771;48.478;8.936;2023-01-15T15:08:15;1.50;;;1.30;;
15342;SDS011;7771;48.478;8.936;2023-01-15T15:10:42;1.17;;;0.90;;
15342;SDS011;7771;48.478;8.936;2023-01-15T15:13:15;3.77;;;1.20;;
15342;SDS011;7771;48.478;8.936;2023-01-15T15:18:51;1.10;;;0.90;;
15342;SDS011;7771;48.478;8.936;2023-01-15T15:21:16;1.57;;;1.20;;
15342;SDS011;7771;48.478;8.936;2023-01-15T15:23:52;3.00;;;1.30;;
15342;SDS011;7771;48.478;8.936;2023-01-15T15:26:23;3.27;;;1.40;;
15342;SDS011;7771;48.478;8.936;2023-01-15T15:29:02;2.43;;;1.50;;
15342;SDS011;7771;48.478;8.936;2023-01-15T15:31:30;1.87;;;1.20;;
15342;SDS011;7771;48.478;8.936;2023-01-15T15:33:57;3.47;;;2.03;;
15342;SDS011;7771;48.478;8.936;2023-01-15T15:36:25;3.43;;;1.53;;
15342;SDS011;7771;48.478;8.936;2023-01-15T15:38:51;4.80;;;2.33;;
15342;SDS011;7771;48.478;8.936;2023-01-15T15:41:18;3.80;;;1.87;;
15342;SDS011;7771;48.478;8.936;2023-01-15T15:43:48;2.33;;;1.63;;
15342;SDS011;7771;48.478;8.936;2023-01-15T15:46:25;3.73;;;2.40;;
15342;SDS011;7771;48.478;8.936;2023-01-15T15:49:04;3.13;;;1.80;;
15342;SDS011;7771;48.478;8.936;2023-01-15T15:51:29;3.13;;;1.53;;
15342;SDS011;7771;48.478;8.936;2023-01-15T15:56:37;3.90;;;2.03;;